sensor_id;sensor_type;location;lat;lon;timestamp;P1;durP1;ratioP1;P2;durP2;ratioP2
22017;SDS011;11173;51.050;7.108;2023-02-28T00:06:56;3.50;;;3.17;;
22017;SDS011;11173;51.050;7.108;2023-02-28T00:16:57;4.05;;;2.72;;
22017;SDS011;11173;51.050;7.108;2023-02-28T00:26:57;3.60;;;2.95;;
22017;SDS011;11173;51.050;7.108;2023-02-28T00:36:57;2.88;;;2.60;;
22017;SDS011;11173;51.050;7.108;2023-02-28T00:46:57;3.75;;;3.45;;
22017;SDS011;11173;51.050;7.108;2023-02-28T00:56:58;3.80;;;2.90;;
22017;SDS011;11173;51.050;7.108;2023-02-28T01:06:58;3.42;;;2.92;;
22017;SDS011;11173;51.050;7.108;2023-02-28T01:16:58;2.92;;;2.72;;
22017;SDS011;11173;51.050;7.108;2023-02-28T01:26:59;2.40;;;2.30;;
22017;SDS011;11173;51.050;7.108;2023-02-28T01:36:59;3.13;;;2.92;;
22017;SDS011;11173;51.050;7.108;2023-02-28T01:46:59;2.95;;;2.75;;
22017;SDS011;11173;51.050;7.108;2023-02-28T01:57:14;3.53;;;3.22;;
22017;SDS011;11173;51.050;7.108;2023-02-28T02:07:16;2.85;;;2.70;;
22017;SDS011;11173;51.050;7.108;2023-02-28T02:17:20;5.18;;;2.92;;
22017;SDS011;11173;51.050;7.108;2023-02-28T02:47:40;2.70;;;2.50;;
22017;SDS011;11173;51.050;7.108;2023-02-28T02:57:51;3.67;;;2.83;;
22017;SDS011;11173;51.050;7.108;2023-02-28T03:07:52;3.00;;;2.80;;
22017;SDS011;11173;51.050;7.108;2023-02-28T03:18:10;3.45;;;2.92;;
22017;SDS011;11173;51.050;7.108;2023-02-28T03:48:49;5.50;;;3.17;;
22017;SDS011;11173;51.050;7.108;2023-02-28T04:08:48;3.38;;;3.05;;
22017;SDS011;11173;51.050;7.108;2023-02-28T04:18:48;4.03;;;3.75;;
22017;SDS011;11173;51.050;7.108;2023-02-28T04:28:49;3.78;;;3.47;;
22017;SDS011;11173;51.050;7.108;2023-02-28T04:38:49;4.22;;;3.38;;
22017;SDS011;11173;51.050;7.108;2023-02-28T04:48:49;3.42;;;3.22;;
22017;SDS011;11173;51.050;7.108;2023-02-28T04:58:49;3.30;;;3.10;;
22017;SDS011;11173;51.050;7.108;2023-02-28T05:08:52;4.28;;;3.28;;
22017;SDS011;11173;51.050;7.108;2023-02-28T05:18:52;4.25;;;3.42;;
22017;SDS011;11173;51.050;7.108;2023-02-28T05:28:53;3.88;;;3.58;;
22017;SDS011;11173;51.050;7.108;2023-02-28T05:38:54;3.33;;;3.13;;
22017;SDS011;11173;51.050;7.108;2023-02-28T05:48:54;3.42;;;3.22;;
22017;SDS011;11173;51.050;7.108;2023-02-28T05:58:55;3.10;;;2.90;;
22017;SDS011;11173;51.050;7.108;2023-02-28T06:08:56;3.38;;;3.17;;
22017;SDS011;11173;51.050;7.108;2023-02-28T06:18:57;4.78;;;3.30;;
22017;SDS011;11173;51.050;7.108;2023-02-28T06:28:57;4.15;;;3.80;;
22017;SDS011;11173;51.050;7.108;2023-02-28T06:38:58;3.92;;;3.63;;
22017;SDS011;11173;51.050;7.108;2023-02-28T06:48:58;3.63;;;3.40;;
22017;SDS011;11173;51.050;7.108;2023-02-28T06:58:59;3.95;;;3.65;;
22017;SDS011;11173;51.050;7.108;2023-02-28T07:08:59;3.53;;;3.33;;
22017;SDS011;11173;51.050;7.108;2023-02-28T07:19:00;3.40;;;2.92;;
22017;SDS011;11173;51.050;7.108;2023-02-28T07:29:00;3.20;;;3.00;;
22017;SDS011;11173;51.050;7.108;2023-02-28T07:39:01;2.70;;;2.60;;
22017;SDS011;11173;51.050;7.108;2023-02-28T07:49:01;2.65;;;2.50;;
22017;SDS011;11173;51.050;7.108;2023-02-28T07:59:02;3.42;;;2.53;;
22017;SDS011;11173;51.050;7.108;2023-02-28T08:09:03;2.50;;;2.40;;
22017;SDS011;11173;51.050;7.108;2023-02-28T08:19:03;2.50;;;2.30;;
22017;SDS011;11173;51.050;7.108;2023-02-28T08:29:03;2.42;;;2.25;;
22017;SDS011;11173;51.050;7.108;2023-02-28T08:39:04;2.60;;;2.40;;
22017;SDS011;11173;51.050;7.108;2023-02-28T08:49:04;2.45;;;2.25;;
22017;SDS011;11173;51.050;7.108;2023-02-28T08:59:05;2.30;;;2.20;;
22017;SDS011;11173;51.050;7.108;2023-02-28T09:09:05;4.18;;;2.70;;
22017;SDS011;11173;51.050;7.108;2023-02-28T09:19:10;2.60;;;2.40;;
22017;SDS011;11173;51.050;7.108;2023-02-28T09:29:10;2.17;;;1.98;;
22017;SDS011;11173;51.050;7.108;2023-02-28T09:39:11;2.15;;;1.95;;
22017;SDS011;11173;51.050;7.108;2023-02-28T09:49:13;2.03;;;1.92;;
22017;SDS011;11173;51.050;7.108;2023-02-28T09:59:18;1.92;;;1.83;;
22017;SDS011;11173;51.050;7.108;2023-02-28T10:19:35;2.22;;;1.88;;
22017;SDS011;11173;51.050;7.108;2023-02-28T10:29:38;1.80;;;1.65;;
22017;SDS011;11173;51.050;7.108;2023-02-28T10:39:41;1.70;;;1.60;;
22017;SDS011;11173;51.050;7.108;2023-02-28T10:49:46;1.85;;;1.75;;
22017;SDS011;11173;51.050;7.108;2023-02-28T10:59:50;3.15;;;2.13;;
22017;SDS011;11173;51.050;7.108;2023-02-28T11:09:51;2.40;;;2.20;;
22017;SDS011;11173;51.050;7.108;2023-02-28T11:19:56;3.55;;;2.20;;
22017;SDS011;11173;51.050;7.108;2023-02-28T11:29:58;2.70;;;2.50;;
22017;SDS011;11173;51.050;7.108;2023-02-28T11:39:58;2.40;;;2.22;;
22017;SDS011;11173;51.050;7.108;2023-02-28T12:10:21;1.98;;;1.83;;
22017;SDS011;11173;51.050;7.108;2023-02-28T12:20:43;2.00;;;1.90;;
22017;SDS011;11173;51.050;7.108;2023-02-28T12:41:13;2.05;;;1.95;;
22017;SDS011;11173;51.050;7.108;2023-02-28T12:51:14;3.03;;;2.13;;
22017;SDS011;11173;51.050;7.108;2023-02-28T13:11:44;2.22;;;2.03;;
22017;SDS011;11173;51.050;7.108;2023-02-28T13:21:45;2.75;;;2.08;;
22017;SDS011;11173;51.050;7.108;2023-02-28T13:52:27;2.33;;;2.13;;
22017;SDS011;11173;51.050;7.108;2023-02-28T14:02:34;2.20;;;2.10;;
22017;SDS011;11173;51.050;7.108;2023-02-28T14:12:51;3.15;;;2.45;;
22017;SDS011;11173;51.050;7.108;2023-02-28T14:23:02;2.45;;;2.20;;
22017;SDS011;11173;51.050;7.108;2023-02-28T14:33:23;2.20;;;2.05;;
22017;SDS011;11173;51.050;7.108;2023-02-28T14:43:27;2.22;;;2.13;;
22017;SDS011;11173;51.050;7.108;2023-02-28T14:53:28;1.77;;;1.67;;
22017;SDS011;11173;51.050;7.108;2023-02-28T15:03:36;2.03;;;1.83;;
22017;SDS011;11173;51.050;7.108;2023-02-28T15:13:40;2.42;;;2.20;;
22017;SDS011;11173;51.050;7.108;2023-02-28T15:23:42;2.83;;;2.10;;
22017;SDS011;11173;51.050;7.108;2023-02-28T15:33:52;1.88;;;1.77;;
22017;SDS011;11173;51.050;7.108;2023-02-28T15:54:15;1.90;;;1.60;;
22017;SDS011;11173;51.050;7.108;2023-02-28T16:04:19;2.08;;;1.80;;
22017;SDS011;11173;51.050;7.108;2023-02-28T16:14:29;2.20;;;2.00;;
22017;SDS011;11173;51.050;7.108;2023-02-28T16:24:35;2.20;;;1.90;;
22017;SDS011;11173;51.050;7.108;2023-02-28T16:34:35;2.38;;;2.17;;
22017;SDS011;11173;51.050;7.108;2023-02-28T16:44:35;2.03;;;1.83;;
22017;SDS011;11173;51.050;7.108;2023-02-28T16:54:36;2.10;;;1.90;;
22017;SDS011;11173;51.050;7.108;2023-02-28T17:04:36;2.88;;;2.25;;
22017;SDS011;11173;51.050;7.108;2023-02-28T17:14:36;2.47;;;2.28;;
22017;SDS011;11173;51.050;7.108;2023-02-28T17:24:37;3.92;;;2.90;;
22017;SDS011;11173;51.050;7.108;2023-02-28T17:34:37;2.95;;;2.75;;
22017;SDS011;11173;51.050;7.108;2023-02-28T17:44:37;5.32;;;3.90;;
22017;SDS011;11173;51.050;7.108;2023-02-28T17:54:38;4.00;;;3.60;;
22017;SDS011;11173;51.050;7.108;2023-02-28T18:04:38;5.13;;;3.78;;
22017;SDS011;11173;51.050;7.108;2023-02-28T18:14:39;4.40;;;3.92;;
22017;SDS011;11173;51.050;7.108;2023-02-28T18:24:39;3.85;;;3.55;;
22017;SDS011;11173;51.050;7.108;2023-02-28T18:34:40;4.33;;;3.63;;
22017;SDS011;11173;51.050;7.108;2023-02-28T18:44:40;4.03;;;3.72;;
22017;SDS011;11173;51.050;7.108;2023-02-28T18:54:40;5.15;;;3.80;;
22017;SDS011;11173;51.050;7.108;2023-02-28T19:04:40;5.25;;;4.25;;
22017;SDS011;11173;51.050;7.108;2023-02-28T19:14:41;5.10;;;4.60;;
22017;SDS011;11173;51.050;7.108;2023-02-28T19:24:41;3.90;;;3.60;;
22017;SDS011;11173;51.050;7.108;2023-02-28T19:34:41;4.13;;;3.75;;
22017;SDS011;11173;51.050;7.108;2023-02-28T19:44:44;4.43;;;4.03;;
22017;SDS011;11173;51.050;7.108;2023-02-28T19:54:45;5.47;;;4.57;;
22017;SDS011;11173;51.050;7.108;2023-02-28T20:04:45;5.05;;;4.63;;
22017;SDS011;11173;51.050;7.108;2023-02-28T20:14:46;7.85;;;6.00;;
22017;SDS011;11173;51.050;7.108;2023-02-28T20:24:46;6.53;;;4.95;;
22017;SDS011;11173;51.050;7.108;2023-02-28T20:34:47;22.02;;;12.05;;
22017;SDS011;11173;51.050;7.108;2023-02-28T20:44:47;8.57;;;5.53;;
22017;SDS011;11173;51.050;7.108;2023-02-28T20:54:47;5.50;;;5.00;;
22017;SDS011;11173;51.050;7.108;2023-02-28T21:04:47;8.48;;;5.43;;
22017;SDS011;11173;51.050;7.108;2023-02-28T21:14:48;5.72;;;4.70;;
22017;SDS011;11173;51.050;7.108;2023-02-28T21:24:48;5.75;;;5.05;;
22017;SDS011;11173;51.050;7.108;2023-02-28T21:34:48;7.68;;;5.07;;
22017;SDS011;11173;51.050;7.108;2023-02-28T21:44:49;6.30;;;5.45;;
22017;SDS011;11173;51.050;7.108;2023-02-28T21:54:49;6.80;;;5.00;;
22017;SDS011;11173;51.050;7.108;2023-02-28T22:04:49;5.80;;;5.22;;
22017;SDS011;11173;51.050;7.108;2023-02-28T22:14:50;4.05;;;3.80;;
22017;SDS011;11173;51.050;7.108;2023-02-28T22:24:50;4.50;;;4.15;;
22017;SDS011;11173;51.050;7.108;2023-02-28T22:34:50;5.15;;;4.65;;
22017;SDS011;11173;51.050;7.108;2023-02-28T22:44:51;5.10;;;4.60;;
22017;SDS011;11173;51.050;7.108;2023-02-28T22:54:51;5.13;;;4.53;;
22017;SDS011;11173;51.050;7.108;2023-02-28T23:04:53;4.55;;;4.15;;
22017;SDS011;11173;51.050;7.108;2023-02-28T23:14:53;5.68;;;5.10;;
22017;SDS011;11173;51.050;7.108;2023-02-28T23:24:54;5.25;;;4.75;;
22017;SDS011;11173;51.050;7.108;2023-02-28T23:34:54;4.50;;;4.10;;
22017;SDS011;11173;51.050;7.108;2023-02-28T23:44:54;5.30;;;4.85;;
22017;SDS011;11173;51.050;7.108;2023-02-28T23:54:54;5.35;;;4.85;;
